sensor_id;sensor_type;location;lat;lon;timestamp;temperature;humidity
19252;DHT22;9760;50.944;5.304;2022-08-21T00:00:17;17.00;99.90
19252;DHT22;9760;50.944;5.304;2022-08-21T00:02:52;17.00;99.90
19252;DHT22;9760;50.944;5.304;2022-08-21T00:05:19;17.00;99.90
19252;DHT22;9760;50.944;5.304;2022-08-21T00:07:45;16.90;99.90
19252;DHT22;9760;50.944;5.304;2022-08-21T00:10:12;16.90;99.90
19252;DHT22;9760;50.944;5.304;2022-08-21T00:12:38;16.90;99.90
19252;DHT22;9760;50.944;5.304;2022-08-21T00:15:05;16.90;99.90
19252;DHT22;9760;50.944;5.304;2022-08-21T00:17:31;16.90;99.90
19252;DHT22;9760;50.944;5.304;2022-08-21T00:19:57;16.90;99.90
19252;DHT22;9760;50.944;5.304;2022-08-21T00:22:22;16.90;99.90
19252;DHT22;9760;50.944;5.304;2022-08-21T00:24:48;16.80;99.90
19252;DHT22;9760;50.944;5.304;2022-08-21T00:27:13;16.80;99.90
19252;DHT22;9760;50.944;5.304;2022-08-21T00:29:39;16.70;99.90
19252;DHT22;9760;50.944;5.304;2022-08-21T00:32:05;16.50;99.90
19252;DHT22;9760;50.944;5.304;2022-08-21T00:34:31;16.40;99.90
19252;DHT22;9760;50.944;5.304;2022-08-21T00:36:56;16.40;99.90
19252;DHT22;9760;50.944;5.304;2022-08-21T00:39:22;16.20;99.90
19252;DHT22;9760;50.944;5.304;2022-08-21T00:41:48;16.00;99.90
19252;DHT22;9760;50.944;5.304;2022-08-21T00:44:15;16.10;99.90
19252;DHT22;9760;50.944;5.304;2022-08-21T00:46:41;16.20;99.90
19252;DHT22;9760;50.944;5.304;2022-08-21T00:49:08;16.00;99.90
19252;DHT22;9760;50.944;5.304;2022-08-21T00:51:52;16.30;99.90
19252;DHT22;9760;50.944;5.304;2022-08-21T00:54:21;16.40;99.90
19252;DHT22;9760;50.944;5.304;2022-08-21T00:56:51;16.40;99.90
19252;DHT22;9760;50.944;5.304;2022-08-21T00:59:19;16.30;99.90
19252;DHT22;9760;50.944;5.304;2022-08-21T01:01:45;16.40;99.90
19252;DHT22;9760;50.944;5.304;2022-08-21T01:04:11;16.30;99.90
19252;DHT22;9760;50.944;5.304;2022-08-21T01:06:37;16.40;99.90
19252;DHT22;9760;50.944;5.304;2022-08-21T01:09:03;16.40;99.90
19252;DHT22;9760;50.944;5.304;2022-08-21T01:11:30;16.40;99.90
19252;DHT22;9760;50.944;5.304;2022-08-21T01:13:55;16.20;99.90
19252;DHT22;9760;50.944;5.304;2022-08-21T01:16:22;15.90;99.90
19252;DHT22;9760;50.944;5.304;2022-08-21T01:18:49;16.00;99.90
19252;DHT22;9760;50.944;5.304;2022-08-21T01:21:19;15.90;99.90
19252;DHT22;9760;50.944;5.304;2022-08-21T01:23:48;15.60;99.90
19252;DHT22;9760;50.944;5.304;2022-08-21T01:26:16;15.70;99.90
19252;DHT22;9760;50.944;5.304;2022-08-21T01:28:48;15.80;99.90
19252;DHT22;9760;50.944;5.304;2022-08-21T01:31:16;15.90;99.90
19252;DHT22;9760;50.944;5.304;2022-08-21T01:33:42;16.00;99.90
19252;DHT22;9760;50.944;5.304;2022-08-21T01:36:08;15.90;99.90
19252;DHT22;9760;50.944;5.304;2022-08-21T01:38:34;15.90;99.90
19252;DHT22;9760;50.944;5.304;2022-08-21T01:41:00;15.90;99.90
19252;DHT22;9760;50.944;5.304;2022-08-21T01:43:26;15.90;99.90
19252;DHT22;9760;50.944;5.304;2022-08-21T01:45:51;15.80;99.90
19252;DHT22;9760;50.944;5.304;2022-08-21T01:48:17;15.80;99.90
19252;DHT22;9760;50.944;5.304;2022-08-21T01:50:43;15.90;99.90
19252;DHT22;9760;50.944;5.304;2022-08-21T01:53:08;15.70;99.90
19252;DHT22;9760;50.944;5.304;2022-08-21T01:55:34;15.70;99.90
19252;DHT22;9760;50.944;5.304;2022-08-21T01:58:00;15.70;99.90
19252;DHT22;9760;50.944;5.304;2022-08-21T02:00:26;15.50;99.90
19252;DHT22;9760;50.944;5.304;2022-08-21T02:02:52;15.40;99.90
19252;DHT22;9760;50.944;5.304;2022-08-21T02:05:18;15.30;99.90
19252;DHT22;9760;50.944;5.304;2022-08-21T02:07:47;15.20;99.90
19252;DHT22;9760;50.944;5.304;2022-08-21T02:10:16;15.20;99.90
19252;DHT22;9760;50.944;5.304;2022-08-21T02:12:42;15.00;99.90
19252;DHT22;9760;50.944;5.304;2022-08-21T02:15:08;14.90;99.90
19252;DHT22;9760;50.944;5.304;2022-08-21T02:17:48;14.90;99.90
19252;DHT22;9760;50.944;5.304;2022-08-21T02:20:21;14.90;99.90
19252;DHT22;9760;50.944;5.304;2022-08-21T02:22:48;14.90;99.90
19252;DHT22;9760;50.944;5.304;2022-08-21T02:25:15;14.90;99.90
19252;DHT22;9760;50.944;5.304;2022-08-21T02:27:43;14.80;99.90
19252;DHT22;9760;50.944;5.304;2022-08-21T02:30:35;14.70;99.90
19252;DHT22;9760;50.944;5.304;2022-08-21T02:32:59;14.50;99.90
19252;DHT22;9760;50.944;5.304;2022-08-21T02:35:26;14.60;99.90
19252;DHT22;9760;50.944;5.304;2022-08-21T02:37:57;14.60;99.90
19252;DHT22;9760;50.944;5.304;2022-08-21T02:40:27;14.50;99.90
19252;DHT22;9760;50.944;5.304;2022-08-21T02:42:53;14.60;99.90
19252;DHT22;9760;50.944;5.304;2022-08-21T02:45:19;14.70;99.90
19252;DHT22;9760;50.944;5.304;2022-08-21T02:48:06;14.70;99.90
19252;DHT22;9760;50.944;5.304;2022-08-21T02:50:40;14.70;99.90
19252;DHT22;9760;50.944;5.304;2022-08-21T02:53:08;14.60;99.90
19252;DHT22;9760;50.944;5.304;2022-08-21T02:55:36;14.50;99.90
19252;DHT22;9760;50.944;5.304;2022-08-21T02:58:04;14.50;99.90
19252;DHT22;9760;50.944;5.304;2022-08-21T03:00:32;14.40;99.90
19252;DHT22;9760;50.944;5.304;2022-08-21T03:02:58;14.40;99.90
19252;DHT22;9760;50.944;5.304;2022-08-21T03:05:25;14.30;99.90
19252;DHT22;9760;50.944;5.304;2022-08-21T03:07:51;14.30;99.90
19252;DHT22;9760;50.944;5.304;2022-08-21T03:10:18;14.30;99.90
19252;DHT22;9760;50.944;5.304;2022-08-21T03:12:45;14.30;99.90
19252;DHT22;9760;50.944;5.304;2022-08-21T03:15:13;14.40;99.90
19252;DHT22;9760;50.944;5.304;2022-08-21T03:17:39;14.30;99.90
19252;DHT22;9760;50.944;5.304;2022-08-21T03:20:06;14.40;99.90
19252;DHT22;9760;50.944;5.304;2022-08-21T03:22:32;14.30;99.90
19252;DHT22;9760;50.944;5.304;2022-08-21T03:24:58;14.20;99.90
19252;DHT22;9760;50.944;5.304;2022-08-21T03:27:25;14.20;99.90
19252;DHT22;9760;50.944;5.304;2022-08-21T03:29:52;14.20;99.90
19252;DHT22;9760;50.944;5.304;2022-08-21T03:32:18;14.20;99.90
19252;DHT22;9760;50.944;5.304;2022-08-21T03:34:45;14.20;99.90
19252;DHT22;9760;50.944;5.304;2022-08-21T03:37:11;14.20;99.90
19252;DHT22;9760;50.944;5.304;2022-08-21T03:39:37;14.40;99.90
19252;DHT22;9760;50.944;5.304;2022-08-21T03:42:03;14.30;99.90
19252;DHT22;9760;50.944;5.304;2022-08-21T03:44:30;14.30;99.90
19252;DHT22;9760;50.944;5.304;2022-08-21T03:46:57;14.20;99.90
19252;DHT22;9760;50.944;5.304;2022-08-21T03:49:23;14.10;99.90
19252;DHT22;9760;50.944;5.304;2022-08-21T03:51:49;14.20;99.90
19252;DHT22;9760;50.944;5.304;2022-08-21T03:54:15;14.20;99.90
19252;DHT22;9760;50.944;5.304;2022-08-21T03:56:41;14.20;99.90
19252;DHT22;9760;50.944;5.304;2022-08-21T03:59:07;14.20;99.90
19252;DHT22;9760;50.944;5.304;2022-08-21T04:01:33;14.20;99.90
19252;DHT22;9760;50.944;5.304;2022-08-21T04:03:58;14.10;99.90
19252;DHT22;9760;50.944;5.304;2022-08-21T04:06:25;14.20;99.90
19252;DHT22;9760;50.944;5.304;2022-08-21T04:08:52;14.20;99.90
19252;DHT22;9760;50.944;5.304;2022-08-21T04:11:18;14.20;99.90
19252;DHT22;9760;50.944;5.304;2022-08-21T04:13:43;14.20;99.90
19252;DHT22;9760;50.944;5.304;2022-08-21T04:16:09;14.20;99.90
19252;DHT22;9760;50.944;5.304;2022-08-21T04:18:35;14.20;99.90
19252;DHT22;9760;50.944;5.304;2022-08-21T04:21:01;14.10;99.90
19252;DHT22;9760;50.944;5.304;2022-08-21T04:23:28;14.10;99.90
19252;DHT22;9760;50.944;5.304;2022-08-21T04:25:54;14.00;99.90
19252;DHT22;9760;50.944;5.304;2022-08-21T04:28:23;14.00;99.90
19252;DHT22;9760;50.944;5.304;2022-08-21T04:30:51;14.00;99.90
19252;DHT22;9760;50.944;5.304;2022-08-21T04:33:17;13.90;99.90
19252;DHT22;9760;50.944;5.304;2022-08-21T04:35:43;13.80;99.90
19252;DHT22;9760;50.944;5.304;2022-08-21T04:38:09;13.90;99.90
19252;DHT22;9760;50.944;5.304;2022-08-21T04:40:35;13.90;99.90
19252;DHT22;9760;50.944;5.304;2022-08-21T04:43:07;13.90;99.90
19252;DHT22;9760;50.944;5.304;2022-08-21T04:45:39;14.10;99.90
19252;DHT22;9760;50.944;5.304;2022-08-21T04:48:07;14.10;99.90
19252;DHT22;9760;50.944;5.304;2022-08-21T04:53:22;14.10;99.90
19252;DHT22;9760;50.944;5.304;2022-08-21T04:55:50;14.00;99.90
19252;DHT22;9760;50.944;5.304;2022-08-21T04:58:19;14.00;99.90
19252;DHT22;9760;50.944;5.304;2022-08-21T05:00:46;13.90;99.90
19252;DHT22;9760;50.944;5.304;2022-08-21T05:03:14;13.90;99.90
19252;DHT22;9760;50.944;5.304;2022-08-21T05:05:41;13.90;99.90
19252;DHT22;9760;50.944;5.304;2022-08-21T05:08:09;13.90;99.90
19252;DHT22;9760;50.944;5.304;2022-08-21T05:10:37;13.80;99.90
19252;DHT22;9760;50.944;5.304;2022-08-21T05:13:05;13.80;99.90
19252;DHT22;9760;50.944;5.304;2022-08-21T05:15:31;13.90;99.90
19252;DHT22;9760;50.944;5.304;2022-08-21T05:17:57;14.00;99.90
19252;DHT22;9760;50.944;5.304;2022-08-21T05:20:23;14.10;99.90
19252;DHT22;9760;50.944;5.304;2022-08-21T05:22:48;14.10;99.90
19252;DHT22;9760;50.944;5.304;2022-08-21T05:25:14;14.10;99.90
19252;DHT22;9760;50.944;5.304;2022-08-21T05:27:40;14.20;99.90
19252;DHT22;9760;50.944;5.304;2022-08-21T05:30:07;14.30;99.90
19252;DHT22;9760;50.944;5.304;2022-08-21T05:32:33;14.30;99.90
19252;DHT22;9760;50.944;5.304;2022-08-21T05:34:59;14.40;99.90
19252;DHT22;9760;50.944;5.304;2022-08-21T05:37:25;14.50;99.90
19252;DHT22;9760;50.944;5.304;2022-08-21T05:39:50;14.60;99.90
19252;DHT22;9760;50.944;5.304;2022-08-21T05:42:16;14.60;99.90
19252;DHT22;9760;50.944;5.304;2022-08-21T05:44:42;14.80;99.90
19252;DHT22;9760;50.944;5.304;2022-08-21T05:47:10;14.80;99.90
19252;DHT22;9760;50.944;5.304;2022-08-21T05:49:36;14.80;99.90
19252;DHT22;9760;50.944;5.304;2022-08-21T05:52:03;14.90;99.90
19252;DHT22;9760;50.944;5.304;2022-08-21T05:54:29;14.90;99.90
19252;DHT22;9760;50.944;5.304;2022-08-21T05:56:55;14.90;99.90
19252;DHT22;9760;50.944;5.304;2022-08-21T05:59:21;15.00;99.90
19252;DHT22;9760;50.944;5.304;2022-08-21T06:01:46;15.10;99.90
19252;DHT22;9760;50.944;5.304;2022-08-21T06:04:12;15.20;99.90
19252;DHT22;9760;50.944;5.304;2022-08-21T06:06:38;15.20;99.90
19252;DHT22;9760;50.944;5.304;2022-08-21T06:09:04;15.40;99.90
19252;DHT22;9760;50.944;5.304;2022-08-21T06:11:31;15.50;99.90
19252;DHT22;9760;50.944;5.304;2022-08-21T06:13:58;15.60;99.90
19252;DHT22;9760;50.944;5.304;2022-08-21T06:16:24;15.60;99.90
19252;DHT22;9760;50.944;5.304;2022-08-21T06:18:50;15.60;99.90
19252;DHT22;9760;50.944;5.304;2022-08-21T06:21:16;15.60;99.90
19252;DHT22;9760;50.944;5.304;2022-08-21T06:23:43;15.70;99.90
19252;DHT22;9760;50.944;5.304;2022-08-21T06:26:11;15.80;99.90
19252;DHT22;9760;50.944;5.304;2022-08-21T06:28:38;15.90;99.90
19252;DHT22;9760;50.944;5.304;2022-08-21T06:31:16;16.00;99.90
19252;DHT22;9760;50.944;5.304;2022-08-21T06:33:42;16.10;99.90
19252;DHT22;9760;50.944;5.304;2022-08-21T06:36:08;16.20;99.90
19252;DHT22;9760;50.944;5.304;2022-08-21T06:38:35;16.30;99.90
19252;DHT22;9760;50.944;5.304;2022-08-21T06:41:01;16.40;99.90
19252;DHT22;9760;50.944;5.304;2022-08-21T06:43:26;16.60;99.90
19252;DHT22;9760;50.944;5.304;2022-08-21T06:45:52;16.70;99.90
19252;DHT22;9760;50.944;5.304;2022-08-21T06:48:18;16.90;99.90
19252;DHT22;9760;50.944;5.304;2022-08-21T06:50:44;17.10;99.90
19252;DHT22;9760;50.944;5.304;2022-08-21T06:53:12;17.30;99.90
19252;DHT22;9760;50.944;5.304;2022-08-21T06:55:39;17.40;99.90
19252;DHT22;9760;50.944;5.304;2022-08-21T06:58:05;17.50;99.90
19252;DHT22;9760;50.944;5.304;2022-08-21T07:00:32;17.50;99.90
19252;DHT22;9760;50.944;5.304;2022-08-21T07:02:58;17.60;99.90
19252;DHT22;9760;50.944;5.304;2022-08-21T07:05:28;17.70;99.90
19252;DHT22;9760;50.944;5.304;2022-08-21T07:07:54;17.70;99.90
19252;DHT22;9760;50.944;5.304;2022-08-21T07:10:20;17.90;99.90
19252;DHT22;9760;50.944;5.304;2022-08-21T07:12:46;18.00;99.90
19252;DHT22;9760;50.944;5.304;2022-08-21T07:15:11;18.00;99.90
19252;DHT22;9760;50.944;5.304;2022-08-21T07:17:37;18.10;99.90
19252;DHT22;9760;50.944;5.304;2022-08-21T07:20:04;18.10;99.90
19252;DHT22;9760;50.944;5.304;2022-08-21T07:22:30;18.10;99.90
19252;DHT22;9760;50.944;5.304;2022-08-21T07:24:56;18.20;99.90
19252;DHT22;9760;50.944;5.304;2022-08-21T07:27:22;18.30;99.90
19252;DHT22;9760;50.944;5.304;2022-08-21T07:29:47;18.40;99.90
19252;DHT22;9760;50.944;5.304;2022-08-21T07:32:13;18.40;99.90
19252;DHT22;9760;50.944;5.304;2022-08-21T07:34:40;18.50;99.90
19252;DHT22;9760;50.944;5.304;2022-08-21T07:37:06;18.60;99.90
19252;DHT22;9760;50.944;5.304;2022-08-21T07:39:32;18.60;99.90
19252;DHT22;9760;50.944;5.304;2022-08-21T07:41:57;18.70;99.90
19252;DHT22;9760;50.944;5.304;2022-08-21T07:44:23;18.70;99.90
19252;DHT22;9760;50.944;5.304;2022-08-21T07:46:49;18.60;99.90
19252;DHT22;9760;50.944;5.304;2022-08-21T07:49:14;18.50;99.90
19252;DHT22;9760;50.944;5.304;2022-08-21T07:51:40;18.40;99.90
19252;DHT22;9760;50.944;5.304;2022-08-21T07:54:06;18.60;99.90
19252;DHT22;9760;50.944;5.304;2022-08-21T07:56:31;18.80;99.90
19252;DHT22;9760;50.944;5.304;2022-08-21T07:58:57;19.00;99.90
19252;DHT22;9760;50.944;5.304;2022-08-21T08:01:24;19.10;99.90
19252;DHT22;9760;50.944;5.304;2022-08-21T08:03:50;19.20;99.90
19252;DHT22;9760;50.944;5.304;2022-08-21T08:06:16;19.20;99.90
19252;DHT22;9760;50.944;5.304;2022-08-21T08:08:44;19.10;99.90
19252;DHT22;9760;50.944;5.304;2022-08-21T08:11:10;19.20;99.90
19252;DHT22;9760;50.944;5.304;2022-08-21T08:13:42;19.40;99.90
19252;DHT22;9760;50.944;5.304;2022-08-21T08:16:08;19.80;99.90
19252;DHT22;9760;50.944;5.304;2022-08-21T08:18:33;19.80;99.90
19252;DHT22;9760;50.944;5.304;2022-08-21T08:20:59;19.90;99.90
19252;DHT22;9760;50.944;5.304;2022-08-21T08:23:25;19.80;99.90
19252;DHT22;9760;50.944;5.304;2022-08-21T08:25:51;19.70;99.90
19252;DHT22;9760;50.944;5.304;2022-08-21T08:28:17;19.80;99.90
19252;DHT22;9760;50.944;5.304;2022-08-21T08:30:43;19.90;99.90
19252;DHT22;9760;50.944;5.304;2022-08-21T08:33:09;19.80;99.90
19252;DHT22;9760;50.944;5.304;2022-08-21T08:35:34;19.90;99.90
19252;DHT22;9760;50.944;5.304;2022-08-21T08:38:01;19.80;99.90
19252;DHT22;9760;50.944;5.304;2022-08-21T08:40:50;20.00;99.90
19252;DHT22;9760;50.944;5.304;2022-08-21T08:43:18;20.00;99.90
19252;DHT22;9760;50.944;5.304;2022-08-21T08:45:48;20.30;99.90
19252;DHT22;9760;50.944;5.304;2022-08-21T08:48:26;20.40;99.90
19252;DHT22;9760;50.944;5.304;2022-08-21T08:50:59;20.40;99.90
19252;DHT22;9760;50.944;5.304;2022-08-21T08:53:33;20.70;99.90
19252;DHT22;9760;50.944;5.304;2022-08-21T08:56:03;20.80;99.90
19252;DHT22;9760;50.944;5.304;2022-08-21T08:58:32;20.70;99.90
19252;DHT22;9760;50.944;5.304;2022-08-21T09:00:59;20.90;99.90
19252;DHT22;9760;50.944;5.304;2022-08-21T09:03:26;20.90;99.90
19252;DHT22;9760;50.944;5.304;2022-08-21T09:06:07;21.00;99.90
19252;DHT22;9760;50.944;5.304;2022-08-21T09:14:09;21.10;99.90
19252;DHT22;9760;50.944;5.304;2022-08-21T09:16:46;21.10;99.90
19252;DHT22;9760;50.944;5.304;2022-08-21T09:19:36;21.20;99.90
19252;DHT22;9760;50.944;5.304;2022-08-21T09:24:54;21.60;99.90
19252;DHT22;9760;50.944;5.304;2022-08-21T09:27:23;21.50;99.90
19252;DHT22;9760;50.944;5.304;2022-08-21T09:29:52;21.50;99.90
19252;DHT22;9760;50.944;5.304;2022-08-21T09:32:30;21.60;99.90
19252;DHT22;9760;50.944;5.304;2022-08-21T09:35:11;21.70;99.90
19252;DHT22;9760;50.944;5.304;2022-08-21T09:38:03;21.50;99.90
19252;DHT22;9760;50.944;5.304;2022-08-21T09:40:43;21.60;99.90
19252;DHT22;9760;50.944;5.304;2022-08-21T09:45:38;22.10;99.90
19252;DHT22;9760;50.944;5.304;2022-08-21T09:48:14;22.40;99.90
19252;DHT22;9760;50.944;5.304;2022-08-21T09:50:42;22.40;99.90
19252;DHT22;9760;50.944;5.304;2022-08-21T09:53:20;22.40;99.90
19252;DHT22;9760;50.944;5.304;2022-08-21T09:58:37;22.20;99.90
19252;DHT22;9760;50.944;5.304;2022-08-21T10:01:05;22.60;99.90
19252;DHT22;9760;50.944;5.304;2022-08-21T10:03:32;22.70;99.90
19252;DHT22;9760;50.944;5.304;2022-08-21T10:06:01;22.70;99.90
19252;DHT22;9760;50.944;5.304;2022-08-21T10:08:31;22.70;99.90
19252;DHT22;9760;50.944;5.304;2022-08-21T10:11:06;22.90;99.90
19252;DHT22;9760;50.944;5.304;2022-08-21T10:13:52;22.70;99.90
19252;DHT22;9760;50.944;5.304;2022-08-21T10:24:32;23.70;99.90
19252;DHT22;9760;50.944;5.304;2022-08-21T10:30:06;23.30;99.90
19252;DHT22;9760;50.944;5.304;2022-08-21T10:32:47;23.40;99.90
19252;DHT22;9760;50.944;5.304;2022-08-21T10:35:25;23.40;99.90
19252;DHT22;9760;50.944;5.304;2022-08-21T10:41:21;24.10;99.90
19252;DHT22;9760;50.944;5.304;2022-08-21T10:48:58;24.10;99.90
19252;DHT22;9760;50.944;5.304;2022-08-21T10:54:13;23.90;99.90
19252;DHT22;9760;50.944;5.304;2022-08-21T10:56:43;23.70;99.90
19252;DHT22;9760;50.944;5.304;2022-08-21T10:59:33;23.50;99.90
19252;DHT22;9760;50.944;5.304;2022-08-21T11:02:17;23.90;99.90
19252;DHT22;9760;50.944;5.304;2022-08-21T11:05:52;25.00;99.90
19252;DHT22;9760;50.944;5.304;2022-08-21T11:08:05;25.60;99.90
19252;DHT22;9760;50.944;5.304;2022-08-21T11:10:45;26.10;99.90
19252;DHT22;9760;50.944;5.304;2022-08-21T11:13:34;26.50;99.90
19252;DHT22;9760;50.944;5.304;2022-08-21T11:18:37;26.00;99.90
19252;DHT22;9760;50.944;5.304;2022-08-21T11:29:28;26.80;99.90
19252;DHT22;9760;50.944;5.304;2022-08-21T11:37:30;27.70;99.90
19252;DHT22;9760;50.944;5.304;2022-08-21T11:40:05;26.80;99.90
19252;DHT22;9760;50.944;5.304;2022-08-21T11:42:50;26.70;99.90
19252;DHT22;9760;50.944;5.304;2022-08-21T11:45:44;27.10;99.90
19252;DHT22;9760;50.944;5.304;2022-08-21T11:50:59;26.10;99.90
19252;DHT22;9760;50.944;5.304;2022-08-21T11:53:28;25.30;99.90
19252;DHT22;9760;50.944;5.304;2022-08-21T11:56:01;24.80;99.90
19252;DHT22;9760;50.944;5.304;2022-08-21T11:58:39;24.40;99.90
19252;DHT22;9760;50.944;5.304;2022-08-21T12:03:38;24.10;99.90
19252;DHT22;9760;50.944;5.304;2022-08-21T12:06:08;24.00;99.90
19252;DHT22;9760;50.944;5.304;2022-08-21T12:08:35;24.20;99.90
19252;DHT22;9760;50.944;5.304;2022-08-21T12:11:22;24.10;99.90
19252;DHT22;9760;50.944;5.304;2022-08-21T12:14:13;24.00;99.90
19252;DHT22;9760;50.944;5.304;2022-08-21T12:16:44;24.10;99.90
19252;DHT22;9760;50.944;5.304;2022-08-21T12:19:12;24.00;99.90
19252;DHT22;9760;50.944;5.304;2022-08-21T12:21:54;23.80;99.90
19252;DHT22;9760;50.944;5.304;2022-08-21T12:26:55;24.00;99.90
19252;DHT22;9760;50.944;5.304;2022-08-21T12:32:19;24.00;99.90
19252;DHT22;9760;50.944;5.304;2022-08-21T12:35:02;24.00;99.90
19252;DHT22;9760;50.944;5.304;2022-08-21T12:37:41;24.20;99.90
19252;DHT22;9760;50.944;5.304;2022-08-21T12:40:24;24.30;99.90
19252;DHT22;9760;50.944;5.304;2022-08-21T12:42:53;24.20;99.90
19252;DHT22;9760;50.944;5.304;2022-08-21T12:45:42;24.10;99.90
19252;DHT22;9760;50.944;5.304;2022-08-21T12:50:58;24.00;99.90
19252;DHT22;9760;50.944;5.304;2022-08-21T12:56:11;24.30;99.90
19252;DHT22;9760;50.944;5.304;2022-08-21T12:58:40;24.20;99.90
19252;DHT22;9760;50.944;5.304;2022-08-21T13:01:27;24.00;99.90
19252;DHT22;9760;50.944;5.304;2022-08-21T13:03:55;24.10;99.90
19252;DHT22;9760;50.944;5.304;2022-08-21T13:06:23;24.30;99.90
19252;DHT22;9760;50.944;5.304;2022-08-21T13:08:55;24.30;99.90
19252;DHT22;9760;50.944;5.304;2022-08-21T13:11:23;24.30;99.90
19252;DHT22;9760;50.944;5.304;2022-08-21T13:13:51;24.30;99.90
19252;DHT22;9760;50.944;5.304;2022-08-21T13:16:26;24.50;99.90
19252;DHT22;9760;50.944;5.304;2022-08-21T13:19:04;24.40;99.90
19252;DHT22;9760;50.944;5.304;2022-08-21T13:21:39;24.30;99.90
19252;DHT22;9760;50.944;5.304;2022-08-21T13:24:22;24.30;99.90
19252;DHT22;9760;50.944;5.304;2022-08-21T13:26:48;24.50;99.90
19252;DHT22;9760;50.944;5.304;2022-08-21T13:29:17;24.40;99.90
19252;DHT22;9760;50.944;5.304;2022-08-21T13:31:50;24.30;99.90
19252;DHT22;9760;50.944;5.304;2022-08-21T13:34:20;24.30;99.90
19252;DHT22;9760;50.944;5.304;2022-08-21T13:36:46;24.30;99.90
19252;DHT22;9760;50.944;5.304;2022-08-21T13:39:15;24.60;99.90
19252;DHT22;9760;50.944;5.304;2022-08-21T13:41:46;24.60;99.90
19252;DHT22;9760;50.944;5.304;2022-08-21T13:47:05;24.50;99.90
19252;DHT22;9760;50.944;5.304;2022-08-21T13:49:36;24.40;99.90
19252;DHT22;9760;50.944;5.304;2022-08-21T13:52:03;24.60;99.90
19252;DHT22;9760;50.944;5.304;2022-08-21T13:57:00;24.60;99.90
19252;DHT22;9760;50.944;5.304;2022-08-21T13:59:34;24.60;99.90
19252;DHT22;9760;50.944;5.304;2022-08-21T14:04:35;24.90;99.90
19252;DHT22;9760;50.944;5.304;2022-08-21T14:07:02;25.00;99.90
19252;DHT22;9760;50.944;5.304;2022-08-21T14:09:43;25.00;99.90
19252;DHT22;9760;50.944;5.304;2022-08-21T14:12:17;25.00;99.90
19252;DHT22;9760;50.944;5.304;2022-08-21T14:14:45;25.00;99.90
19252;DHT22;9760;50.944;5.304;2022-08-21T14:17:14;24.80;99.90
19252;DHT22;9760;50.944;5.304;2022-08-21T14:19:50;24.90;99.90
19252;DHT22;9760;50.944;5.304;2022-08-21T14:22:39;25.00;99.90
19252;DHT22;9760;50.944;5.304;2022-08-21T14:25:06;25.40;99.90
19252;DHT22;9760;50.944;5.304;2022-08-21T14:27:42;25.50;99.90
19252;DHT22;9760;50.944;5.304;2022-08-21T14:30:16;25.50;99.90
19252;DHT22;9760;50.944;5.304;2022-08-21T14:32:42;25.70;99.90
19252;DHT22;9760;50.944;5.304;2022-08-21T14:35:08;25.60;99.90
19252;DHT22;9760;50.944;5.304;2022-08-21T14:37:35;25.50;99.90
19252;DHT22;9760;50.944;5.304;2022-08-21T14:40:03;25.50;99.90
19252;DHT22;9760;50.944;5.304;2022-08-21T14:42:29;25.60;99.90
19252;DHT22;9760;50.944;5.304;2022-08-21T14:44:59;25.70;99.90
19252;DHT22;9760;50.944;5.304;2022-08-21T14:47:25;25.50;99.90
19252;DHT22;9760;50.944;5.304;2022-08-21T14:49:50;25.40;99.90
19252;DHT22;9760;50.944;5.304;2022-08-21T14:52:19;25.40;99.90
19252;DHT22;9760;50.944;5.304;2022-08-21T14:54:45;25.30;99.90
19252;DHT22;9760;50.944;5.304;2022-08-21T14:57:11;25.40;99.90
19252;DHT22;9760;50.944;5.304;2022-08-21T14:59:38;25.40;99.90
19252;DHT22;9760;50.944;5.304;2022-08-21T15:02:05;25.50;99.90
19252;DHT22;9760;50.944;5.304;2022-08-21T15:04:32;25.50;99.90
19252;DHT22;9760;50.944;5.304;2022-08-21T15:06:57;25.20;99.90
19252;DHT22;9760;50.944;5.304;2022-08-21T15:09:23;25.20;99.90
19252;DHT22;9760;50.944;5.304;2022-08-21T15:11:49;25.20;99.90
19252;DHT22;9760;50.944;5.304;2022-08-21T15:14:21;25.10;99.90
19252;DHT22;9760;50.944;5.304;2022-08-21T15:16:48;25.20;99.90
19252;DHT22;9760;50.944;5.304;2022-08-21T15:19:15;25.00;99.90
19252;DHT22;9760;50.944;5.304;2022-08-21T15:21:41;25.10;99.90
19252;DHT22;9760;50.944;5.304;2022-08-21T15:24:06;25.00;99.90
19252;DHT22;9760;50.944;5.304;2022-08-21T15:26:34;25.20;99.90
19252;DHT22;9760;50.944;5.304;2022-08-21T15:29:00;25.20;99.90
19252;DHT22;9760;50.944;5.304;2022-08-21T15:31:27;25.20;99.90
19252;DHT22;9760;50.944;5.304;2022-08-21T15:33:53;25.40;99.90
19252;DHT22;9760;50.944;5.304;2022-08-21T15:36:19;25.30;99.90
19252;DHT22;9760;50.944;5.304;2022-08-21T15:38:45;25.30;99.90
19252;DHT22;9760;50.944;5.304;2022-08-21T15:41:11;25.30;99.90
19252;DHT22;9760;50.944;5.304;2022-08-21T15:43:51;25.40;99.90
19252;DHT22;9760;50.944;5.304;2022-08-21T15:46:19;25.50;99.90
19252;DHT22;9760;50.944;5.304;2022-08-21T15:48:45;25.50;99.90
19252;DHT22;9760;50.944;5.304;2022-08-21T15:51:12;26.10;99.90
19252;DHT22;9760;50.944;5.304;2022-08-21T15:53:38;26.30;99.90
19252;DHT22;9760;50.944;5.304;2022-08-21T15:56:06;25.90;99.90
19252;DHT22;9760;50.944;5.304;2022-08-21T15:58:36;25.30;99.90
19252;DHT22;9760;50.944;5.304;2022-08-21T16:01:02;25.20;99.90
19252;DHT22;9760;50.944;5.304;2022-08-21T16:03:28;25.20;99.90
19252;DHT22;9760;50.944;5.304;2022-08-21T16:05:54;25.20;99.90
19252;DHT22;9760;50.944;5.304;2022-08-21T16:08:22;25.10;99.90
19252;DHT22;9760;50.944;5.304;2022-08-21T16:10:48;25.60;99.90
19252;DHT22;9760;50.944;5.304;2022-08-21T16:13:29;25.90;99.90
19252;DHT22;9760;50.944;5.304;2022-08-21T16:15:54;25.70;99.90
19252;DHT22;9760;50.944;5.304;2022-08-21T16:18:21;25.40;99.90
19252;DHT22;9760;50.944;5.304;2022-08-21T16:20:47;25.20;99.90
19252;DHT22;9760;50.944;5.304;2022-08-21T16:23:13;24.90;99.90
19252;DHT22;9760;50.944;5.304;2022-08-21T16:25:40;24.80;99.90
19252;DHT22;9760;50.944;5.304;2022-08-21T16:28:08;24.90;99.90
19252;DHT22;9760;50.944;5.304;2022-08-21T16:30:35;24.80;99.90
19252;DHT22;9760;50.944;5.304;2022-08-21T16:33:03;24.80;99.90
19252;DHT22;9760;50.944;5.304;2022-08-21T16:35:30;24.70;99.90
19252;DHT22;9760;50.944;5.304;2022-08-21T16:37:56;24.80;99.90
19252;DHT22;9760;50.944;5.304;2022-08-21T16:40:21;24.60;99.90
19252;DHT22;9760;50.944;5.304;2022-08-21T16:42:47;24.50;99.90
19252;DHT22;9760;50.944;5.304;2022-08-21T16:45:15;24.40;99.90
19252;DHT22;9760;50.944;5.304;2022-08-21T16:47:42;24.40;99.90
19252;DHT22;9760;50.944;5.304;2022-08-21T16:50:10;24.30;99.90
19252;DHT22;9760;50.944;5.304;2022-08-21T16:52:37;24.20;99.90
19252;DHT22;9760;50.944;5.304;2022-08-21T16:55:04;24.20;99.90
19252;DHT22;9760;50.944;5.304;2022-08-21T16:57:30;24.20;99.90
19252;DHT22;9760;50.944;5.304;2022-08-21T16:59:56;24.20;99.90
19252;DHT22;9760;50.944;5.304;2022-08-21T17:02:33;24.10;99.90
19252;DHT22;9760;50.944;5.304;2022-08-21T17:05:00;24.10;99.90
19252;DHT22;9760;50.944;5.304;2022-08-21T17:07:27;23.90;99.90
19252;DHT22;9760;50.944;5.304;2022-08-21T17:09:53;24.00;99.90
19252;DHT22;9760;50.944;5.304;2022-08-21T17:12:19;23.90;99.90
19252;DHT22;9760;50.944;5.304;2022-08-21T17:14:46;23.90;99.90